地図

経路データ

SID SEASON NUMBER BASIN SUBBASIN NAME ISO_TIME NATURE LAT LON WMO_WIND WMO_PRES WMO_AGENCY TRACK_TYPE DIST2LAND LANDFALL IFLAG USA_AGENCY USA_ATCF_ID USA_LAT USA_LON USA_RECORD USA_STATUS USA_WIND USA_PRES USA_SSHS USA_R34_NE USA_R34_SE USA_R34_SW USA_R34_NW USA_R50_NE USA_R50_SE USA_R50_SW USA_R50_NW USA_R64_NE USA_R64_SE USA_R64_SW USA_R64_NW USA_POCI USA_ROCI USA_RMW USA_EYE TOKYO_LAT TOKYO_LON TOKYO_GRADE TOKYO_WIND TOKYO_PRES TOKYO_R50_DIR TOKYO_R50_LONG TOKYO_R50_SHORT TOKYO_R30_DIR TOKYO_R30_LONG TOKYO_R30_SHORT TOKYO_LAND CMA_LAT CMA_LON CMA_CAT CMA_WIND CMA_PRES HKO_LAT HKO_LON HKO_CAT HKO_WIND HKO_PRES NEWDELHI_LAT NEWDELHI_LON NEWDELHI_GRADE NEWDELHI_WIND NEWDELHI_PRES NEWDELHI_CI NEWDELHI_DP NEWDELHI_POCI REUNION_LAT REUNION_LON REUNION_TYPE REUNION_WIND REUNION_PRES REUNION_TNUM REUNION_CI REUNION_RMW REUNION_R34_NE REUNION_R34_SE REUNION_R34_SW REUNION_R34_NW REUNION_R50_NE REUNION_R50_SE REUNION_R50_SW REUNION_R50_NW REUNION_R64_NE REUNION_R64_SE REUNION_R64_SW REUNION_R64_NW BOM_LAT BOM_LON BOM_TYPE BOM_WIND BOM_PRES BOM_TNUM BOM_CI BOM_RMW BOM_R34_NE BOM_R34_SE BOM_R34_SW BOM_R34_NW BOM_R50_NE BOM_R50_SE BOM_R50_SW BOM_R50_NW BOM_R64_NE BOM_R64_SE BOM_R64_SW BOM_R64_NW BOM_ROCI BOM_POCI BOM_EYE BOM_POS_METHOD BOM_PRES_METHOD NADI_LAT NADI_LON NADI_CAT NADI_WIND NADI_PRES WELLINGTON_LAT WELLINGTON_LON WELLINGTON_WIND WELLINGTON_PRES DS824_LAT DS824_LON DS824_STAGE DS824_WIND DS824_PRES TD9636_LAT TD9636_LON TD9636_STAGE TD9636_WIND TD9636_PRES TD9635_LAT TD9635_LON TD9635_WIND TD9635_PRES TD9635_ROCI NEUMANN_LAT NEUMANN_LON NEUMANN_CLASS NEUMANN_WIND NEUMANN_PRES MLC_LAT MLC_LON MLC_CLASS MLC_WIND MLC_PRES USA_GUST BOM_GUST BOM_GUST_PER REUNION_GUST REUNION_GUST_PER USA_SEAHGT USA_SEARAD_NE USA_SEARAD_SE USA_SEARAD_SW USA_SEARAD_NW STORM_SPEED STORM_DIR
1882042S14070 1882 8 SI MM NOT_NAMED 1882-02-11 00:00:00 TS -14.2000 70.0000 main 1463 1424 _________O____ -1 -14.2000 70.0000 TC 9 234
1882042S14070 1882 8 SI MM NOT_NAMED 1882-02-11 03:00:00 TS -14.4526 69.6427 main 1409 1370 _________P____ -1 -14.4526 69.6427 TC 8 234
1882042S14070 1882 8 SI MM NOT_NAMED 1882-02-11 06:00:00 TS -14.7000 69.3000 main 1370 1331 _________O____ -1 -14.7000 69.3000 TC 8 232
1882042S14070 1882 8 SI MM NOT_NAMED 1882-02-11 09:00:00 TS -14.9425 68.9849 main 1331 1287 _________P____ -1 -14.9425 68.9849 TC 8 229
1882042S14070 1882 8 SI MM NOT_NAMED 1882-02-11 12:00:00 TS -15.2000 68.7000 main 1287 1252 _________O____ -1 -15.2000 68.7000 TC 8 224
1882042S14070 1882 8 SI MM NOT_NAMED 1882-02-11 15:00:00 TS -15.4924 68.4424 main 1243 1208 _________P____ -1 -15.4924 68.4424 TC 8 219
1882042S14070 1882 8 SI MM NOT_NAMED 1882-02-11 18:00:00 TS -15.8000 68.2000 main 1208 1175 _________O____ -1 -15.8000 68.2000 TC 8 218
1882042S14070 1882 8 SI MM NOT_NAMED 1882-02-11 21:00:00 TS -16.0925 67.9499 main 1165 1132 _________P____ -1 -16.0925 67.9499 TC 8 219
1882042S14070 1882 8 SI MM NOT_NAMED 1882-02-12 00:00:00 TS -16.4000 67.7000 main 1132 1099 _________O____ -1 -16.4000 67.7000 TC 8 217
1882042S14070 1882 8 SI MM NOT_NAMED 1882-02-12 03:00:00 TS -16.7350 67.4425 main 1089 1052 _________P____ -1 -16.7350 67.4425 TC 9 214
1882042S14070 1882 8 SI MM NOT_NAMED 1882-02-12 06:00:00 TS -17.1000 67.2000 main 1052 1017 _________O____ -1 -17.1000 67.2000 TC 9 209
1882042S14070 1882 8 SI MM NOT_NAMED 1882-02-12 09:00:00 TS -17.5075 66.9924 main 1017 982 _________P____ -1 -17.5075 66.9924 TC 9 206
1882042S14070 1882 8 SI MM NOT_NAMED 1882-02-12 12:00:00 TS -17.9000 66.8000 main 982 953 _________O____ -1 -17.9000 66.8000 TC 8 209
1882042S14070 1882 8 SI MM NOT_NAMED 1882-02-12 15:00:00 TS -18.2075 66.5924 main 953 924 _________P____ -1 -18.2075 66.5924 TC 7 212
1882042S14070 1882 8 SI MM NOT_NAMED 1882-02-12 18:00:00 TS -18.5000 66.4000 main 924 895 _________O____ -1 -18.5000 66.4000 TC 7 207
1882042S14070 1882 8 SI MM NOT_NAMED 1882-02-12 21:00:00 TS -18.8575 66.2350 main 893 877 _________P____ -1 -18.8575 66.2350 TC 8 202
1882042S14070 1882 8 SI MM NOT_NAMED 1882-02-13 00:00:00 TS -19.2000 66.1000 main 877 861 _________O____ -1 -19.2000 66.1000 TC 7 201
1882042S14070 1882 8 SI MM NOT_NAMED 1882-02-13 03:00:00 TS -19.4650 65.9849 main 861 848 _________P____ -1 -19.4650 65.9849 TC 5 201
1882042S14070 1882 8 SI MM NOT_NAMED 1882-02-13 06:00:00 TS -19.7000 65.9000 main 848 836 _________O____ -1 -19.7000 65.9000 TC 5 195
1882042S14070 1882 8 SI MM NOT_NAMED 1882-02-13 09:00:00 TS -19.9500 65.8425 main 836 834 _________P____ -1 -19.9500 65.8425 TC 5 191
1882042S14070 1882 8 SI MM NOT_NAMED 1882-02-13 12:00:00 TS -20.2000 65.8000 main 834 833 _________O____ -1 -20.2000 65.8000 TC 5 190
1882042S14070 1882 8 SI MM NOT_NAMED 1882-02-13 15:00:00 TS -20.4500 65.7500 main 823 823 _________P____ -1 -20.4500 65.7500 TC 5 191
1882042S14070 1882 8 SI MM NOT_NAMED 1882-02-13 18:00:00 TS -20.7000 65.7000 main 823 823 _________O____ -1 -20.7000 65.7000 TC 5 191
1882042S14070 1882 8 SI MM NOT_NAMED 1882-02-13 21:00:00 TS -20.9500 65.6500 main 825 815 _________P____ -1 -20.9500 65.6500 TC 5 191
1882042S14070 1882 8 SI MM NOT_NAMED 1882-02-14 00:00:00 TS -21.2000 65.6000 main 817 _________O____ -1 -21.2000 65.6000 TC 5 189

IBTrACS Databaseについて

本データベースは、米国NOAAが公開する1842年以降の世界の熱帯低気圧のベストトラックデータアーカイブInternational Best Track Archive for Climate Stewardship (IBTrACS)を、ウェブで閲覧しやすい形式に変換したものです。

最終更新日:2021-11-26